Aérodrome :
LOGIN :

S'inscrire | Disclaimer

   EN    FR    IT 

 










Légende :    VFR   VFR Marginal   IFR   IFR Intensif   IFR Très Intensif
Visi : 
Plafond : 
>= 8 km
>= 3000ft
5 à 8 km
1000 à 3000 ft
1500m à 5 km
500 à 1000 ft
800 à 1500m
200 à 500 ft
< 800m
< 200 ft
Symboles :   Orages  Brouillard  Fortes neiges  Fortes précipitations  Vent > 20 kt
SIGMETs :   Divers  Orages  Givrage  Turbulence  Onde Orograph.  Cendres Volcan.






- Altitude de l'aérodrome : 194 ft
- Code IATA : ANE


LFJR - Angers Marcé

DERNIER METAR :
  • 041130Z AUTO 27006KT 210V340 CAVOK 22/07 Q1019

METARs EXPIRÉS :
  • 041100Z AUTO VRB03KT 9999 FEW047 22/08 Q1019
  • 041030Z AUTO VRB03KT 9999 BKN045 21/08 Q1019
  • 041000Z AUTO 23005KT 180V280 9999 SCT043 21/09 Q1019
  • 040930Z AUTO VRB03KT CAVOK 20/10 Q1020
  • 040900Z AUTO VRB02KT CAVOK 19/10 Q1020

Prévision TAF périmée.



MET'MAP, la Météo Aéronautique d'un coup d'oeil ! - Copyright ORBIFLY Décembre 2007 - Disclaimer

ORBIFLY MET'MAP TEAM :

Programmation & Développement : Alexandra Zaïnal
Sur une idée originale de : Baudouin d'Aumeries
Assistance à la programmation : Marc-Olivier Méhu
Soutien technique & logistique : Manuel Goepfert

Contact : metmap@orbifly.com




SOURCES & CREDITS :

   NOAA